Time;durP1;ratioP1;P1;durP2;ratioP2;P2;SDS_P1;SDS_P2;PMS_P1;PMS_P2;Temp;Humidity;BMP_temperature;BMP_pressure;BME280_temperature;BME280_humidity;BME280_pressure;Samples;Min_cycle;Max_cycle;Signal;HPM_P1;HPM_P2
2023/09/11 00:00:41;;;;;;;20.35;16.75;;;20.40;99.90;;;;;;5107747;27;20496;-75
2023/09/11 00:03:07;;;;;;;18.63;16.83;;;20.40;99.90;;;;;;5108463;27;20554;-74
2023/09/11 00:05:33;;;;;;;18.55;16.27;;;20.30;99.90;;;;;;5103772;27;20044;-74
2023/09/11 00:07:58;;;;;;;19.40;16.45;;;20.40;99.90;;;;;;5112408;27;20055;-74
2023/09/11 00:10:24;;;;;;;20.67;17.35;;;20.30;99.90;;;;;;5106961;27;20135;-74
2023/09/11 00:12:50;;;;;;;19.17;15.90;;;20.30;99.90;;;;;;5117913;27;20039;-74
2023/09/11 00:15:16;;;;;;;18.75;16.75;;;20.40;99.90;;;;;;5113861;27;20043;-74
2023/09/11 00:17:41;;;;;;;21.88;18.58;;;20.30;99.90;;;;;;5099683;28;20100;-74
2023/09/11 00:20:08;;;;;;;21.15;17.88;;;20.30;99.90;;;;;;5099250;27;20163;-74
2023/09/11 00:22:33;;;;;;;20.40;18.35;;;20.30;99.90;;;;;;5115144;27;20046;-74
2023/09/11 00:24:59;;;;;;;19.70;17.40;;;20.30;99.90;;;;;;5115573;27;20078;-74
2023/09/11 00:27:26;;;;;;;24.48;17.35;;;20.30;99.90;;;;;;5091805;28;20115;-74
2023/09/11 00:29:51;;;;;;;20.00;17.80;;;20.30;99.90;;;;;;5101867;28;20054;-75
2023/09/11 00:32:17;;;;;;;23.35;18.92;;;20.20;99.90;;;;;;5097376;28;20039;-74
2023/09/11 00:34:43;;;;;;;22.80;17.02;;;20.20;99.90;;;;;;5112868;27;20059;-74
2023/09/11 00:37:09;;;;;;;18.92;16.13;;;20.20;99.90;;;;;;5133813;27;20078;-74
2023/09/11 00:39:34;;;;;;;19.85;16.83;;;20.20;99.90;;;;;;5108604;27;20348;-74
2023/09/11 00:42:00;;;;;;;24.33;19.00;;;20.20;99.90;;;;;;5120031;27;20078;-76
2023/09/11 00:44:26;;;;;;;17.70;15.13;;;20.20;99.90;;;;;;5112422;27;20062;-74
2023/09/11 00:46:53;;;;;;;21.00;16.17;;;20.20;99.90;;;;;;5135911;27;20134;-74
2023/09/11 00:49:20;;;;;;;17.42;15.30;;;20.20;99.90;;;;;;5132611;27;20045;-75
2023/09/11 00:51:47;;;;;;;16.20;13.88;;;20.20;99.90;;;;;;5121888;27;20546;-74
2023/09/11 00:54:14;;;;;;;20.98;18.00;;;20.20;99.90;;;;;;5129001;27;20112;-74
2023/09/11 00:56:41;;;;;;;19.88;17.38;;;20.20;99.90;;;;;;5139627;27;20054;-74
2023/09/11 00:59:07;;;;;;;19.70;15.95;;;20.10;99.90;;;;;;5135772;27;20061;-74
2023/09/11 01:01:32;;;;;;;20.40;16.90;;;20.10;99.90;;;;;;5114030;27;20047;-74
2023/09/11 01:03:59;;;;;;;24.38;18.88;;;20.10;99.90;;;;;;5113512;27;20149;-74
2023/09/11 01:06:24;;;;;;;23.08;16.90;;;20.10;99.90;;;;;;5124289;27;20054;-74
2023/09/11 01:08:55;;;;;;;23.75;16.70;;;20.00;99.90;;;;;;5137453;27;20467;-73
2023/09/11 01:11:21;;;;;;;18.98;16.52;;;20.00;99.90;;;;;;5102415;27;20043;-74
2023/09/11 01:13:47;;;;;;;20.58;17.25;;;20.00;99.90;;;;;;5129921;27;20038;-74
2023/09/11 01:16:18;;;;;;;20.05;16.00;;;20.00;99.90;;;;;;5140219;27;20146;-74
2023/09/11 01:18:52;;;;;;;24.55;17.48;;;20.00;99.90;;;;;;5115673;27;20111;-74
2023/09/11 01:21:46;;;;;;;24.77;16.40;;;20.00;99.90;;;;;;5140482;27;20081;-74
2023/09/11 01:24:30;;;;;;;17.42;15.05;;;20.30;99.90;;;;;;5108016;27;20058;-74
2023/09/11 01:26:58;;;;;;;25.10;18.02;;;20.00;99.90;;;;;;5118512;27;20074;-74
2023/09/11 01:29:30;;;;;;;20.02;15.30;;;19.90;99.90;;;;;;5141461;27;20054;-74
2023/09/11 01:31:58;;;;;;;19.10;15.43;;;19.90;99.90;;;;;;5131288;27;20042;-73
2023/09/11 01:34:24;;;;;;;20.35;16.80;;;19.90;99.90;;;;;;5140661;27;20077;-74
2023/09/11 01:36:49;;;;;;;18.40;16.50;;;19.80;99.90;;;;;;5143556;27;20570;-73
2023/09/11 01:39:16;;;;;;;21.70;18.48;;;19.80;99.90;;;;;;5122659;27;20103;-74
2023/09/11 01:41:47;;;;;;;24.65;18.42;;;19.80;99.90;;;;;;5113463;27;20046;-74
2023/09/11 01:44:26;;;;;;;23.77;18.98;;;19.80;99.90;;;;;;5140946;27;20043;-74
2023/09/11 01:46:53;;;;;;;23.73;18.05;;;19.70;99.90;;;;;;5125293;27;20057;-74
2023/09/11 01:49:20;;;;;;;26.02;19.15;;;19.70;99.90;;;;;;5119336;27;20508;-74
2023/09/11 01:51:49;;;;;;;20.52;18.25;;;19.70;99.90;;;;;;5103633;27;20043;-74
2023/09/11 01:54:16;;;;;;;18.60;14.15;;;19.60;99.90;;;;;;5141011;27;20047;-74
2023/09/11 01:56:42;;;;;;;16.90;14.40;;;19.60;99.90;;;;;;5119647;27;20091;-74
2023/09/11 01:59:07;;;;;;;18.88;16.35;;;19.60;99.90;;;;;;5115448;27;20142;-74
2023/09/11 02:01:33;;;;;;;18.42;16.60;;;19.60;99.90;;;;;;5143151;27;20119;-74
2023/09/11 02:03:59;;;;;;;20.02;16.25;;;19.60;99.90;;;;;;5095488;27;20522;-74
2023/09/11 02:06:24;;;;;;;21.38;16.65;;;19.60;99.90;;;;;;5115313;27;20051;-74
2023/09/11 02:08:50;;;;;;;23.60;19.33;;;19.60;99.90;;;;;;5142931;27;20051;-74
2023/09/11 02:11:16;;;;;;;24.73;19.85;;;19.50;99.90;;;;;;5141806;27;20110;-74
2023/09/11 02:13:41;;;;;;;23.45;18.58;;;19.50;99.90;;;;;;5121171;27;20062;-73
2023/09/11 02:16:07;;;;;;;20.85;16.83;;;19.40;99.90;;;;;;5137930;27;20908;-73
2023/09/11 02:18:33;;;;;;;22.80;17.10;;;19.30;99.90;;;;;;5125323;27;20057;-74
2023/09/11 02:20:58;;;;;;;17.83;15.45;;;19.30;99.90;;;;;;5124568;27;20131;-74
2023/09/11 02:23:24;;;;;;;24.13;19.30;;;19.30;99.90;;;;;;5143781;27;20487;-74
2023/09/11 02:25:51;;;;;;;16.60;14.63;;;19.20;99.90;;;;;;5124055;27;20723;-74
2023/09/11 02:28:16;;;;;;;23.33;17.63;;;19.20;99.90;;;;;;5139348;27;20058;-74
2023/09/11 02:30:42;;;;;;;19.88;17.00;;;19.20;99.90;;;;;;5123450;27;20039;-74
2023/09/11 02:33:08;;;;;;;24.80;19.08;;;19.20;99.90;;;;;;5130824;27;20054;-73
2023/09/11 02:35:33;;;;;;;20.33;16.25;;;19.20;99.90;;;;;;5123857;27;20063;-74
2023/09/11 02:37:59;;;;;;;17.65;14.95;;;19.20;99.90;;;;;;5143537;27;20062;-74
2023/09/11 02:40:25;;;;;;;18.42;16.55;;;19.20;99.90;;;;;;5141112;27;20039;-73
2023/09/11 02:42:51;;;;;;;22.27;17.40;;;19.20;99.90;;;;;;5116983;27;20062;-74
2023/09/11 02:45:16;;;;;;;21.90;17.10;;;19.20;99.90;;;;;;5141349;27;20536;-73
2023/09/11 02:47:42;;;;;;;25.33;20.80;;;19.20;99.90;;;;;;5126702;27;20043;-74
2023/09/11 02:50:08;;;;;;;19.80;15.82;;;19.10;99.90;;;;;;5123888;27;20115;-74
2023/09/11 02:52:34;;;;;;;21.63;16.63;;;19.10;99.90;;;;;;5120878;27;20047;-74
2023/09/11 02:54:59;;;;;;;23.08;17.52;;;19.10;99.90;;;;;;5127875;27;20502;-73
2023/09/11 02:57:25;;;;;;;20.48;17.50;;;19.10;99.90;;;;;;5125113;27;20047;-74
2023/09/11 02:59:55;;;;;;;23.05;19.15;;;19.10;99.90;;;;;;5107658;27;20135;-74
2023/09/11 03:02:23;;;;;;;19.23;15.15;;;19.00;99.90;;;;;;5133194;27;20125;-74
2023/09/11 03:04:50;;;;;;;18.13;15.27;;;19.00;99.90;;;;;;5099943;27;20054;-74
2023/09/11 03:07:17;;;;;;;19.77;16.27;;;19.00;99.90;;;;;;5133587;27;20042;-74
2023/09/11 03:09:44;;;;;;;18.25;16.33;;;19.00;99.90;;;;;;5135772;27;20525;-74
2023/09/11 03:12:10;;;;;;;17.95;15.70;;;19.00;99.90;;;;;;5118028;27;20076;-74
2023/09/11 03:14:36;;;;;;;20.20;15.38;;;19.00;99.90;;;;;;5138268;27;20096;-74
2023/09/11 03:17:02;;;;;;;22.23;18.38;;;19.00;99.90;;;;;;5143271;27;20506;-74
2023/09/11 03:19:28;;;;;;;22.55;19.30;;;19.00;99.90;;;;;;5123720;27;20475;-73
2023/09/11 03:21:54;;;;;;;20.52;17.27;;;18.90;99.90;;;;;;5133682;27;20046;-74
2023/09/11 03:24:20;;;;;;;18.15;14.93;;;18.80;99.90;;;;;;5123154;27;20970;-74
2023/09/11 03:26:49;;;;;;;21.48;18.10;;;18.80;99.90;;;;;;5131448;27;20055;-73
2023/09/11 03:29:15;;;;;;;22.67;17.58;;;18.80;99.90;;;;;;5115173;27;20127;-74
2023/09/11 03:31:41;;;;;;;18.48;16.10;;;18.80;99.90;;;;;;5124251;27;20201;-74
2023/09/11 03:34:07;;;;;;;18.80;14.63;;;18.80;99.90;;;;;;5104502;27;20088;-74
2023/09/11 03:36:32;;;;;;;19.85;16.85;;;18.80;99.90;;;;;;5134534;27;20102;-73
2023/09/11 03:38:58;;;;;;;19.40;17.15;;;18.80;99.90;;;;;;5130478;27;20059;-73
2023/09/11 03:41:23;;;;;;;16.48;13.57;;;18.80;99.90;;;;;;5133696;27;20872;-74
2023/09/11 03:43:49;;;;;;;21.63;18.90;;;18.80;99.90;;;;;;5131988;27;20137;-74
2023/09/11 03:46:15;;;;;;;21.65;17.25;;;18.80;99.90;;;;;;5109760;27;20050;-74
2023/09/11 03:48:41;;;;;;;18.40;15.68;;;18.80;99.90;;;;;;5134943;27;20054;-73
2023/09/11 03:51:07;;;;;;;21.30;18.90;;;18.80;99.90;;;;;;5124339;27;20038;-74
2023/09/11 03:53:33;;;;;;;17.98;15.57;;;18.80;99.90;;;;;;5127028;27;20180;-73
2023/09/11 03:56:00;;;;;;;23.55;17.10;;;18.80;99.90;;;;;;5126051;27;20061;-73
2023/09/11 03:58:25;;;;;;;20.67;16.63;;;18.80;99.90;;;;;;5132766;27;20053;-74
2023/09/11 04:00:51;;;;;;;19.50;16.48;;;18.80;99.90;;;;;;5141929;27;20050;-73
2023/09/11 04:03:17;;;;;;;22.75;18.15;;;18.80;99.90;;;;;;5125041;27;20071;-73
2023/09/11 04:05:43;;;;;;;20.05;17.42;;;18.80;99.90;;;;;;5137201;27;20047;-73
2023/09/11 04:08:08;;;;;;;22.92;15.75;;;18.70;99.90;;;;;;5126897;27;20051;-74
2023/09/11 04:10:34;;;;;;;18.40;16.38;;;18.80;99.90;;;;;;5137156;27;20434;-74
2023/09/11 04:13:00;;;;;;;16.42;14.73;;;18.70;99.90;;;;;;5131746;27;20673;-73
2023/09/11 04:15:25;;;;;;;20.48;15.27;;;18.70;99.90;;;;;;5140677;27;20107;-73
2023/09/11 04:17:54;;;;;;;17.15;15.32;;;18.70;99.90;;;;;;5117113;27;20069;-74
2023/09/11 04:20:21;;;;;;;22.67;16.80;;;18.70;99.90;;;;;;5130230;27;20057;-73
2023/09/11 04:22:46;;;;;;;17.58;15.15;;;18.70;99.90;;;;;;5109080;27;20043;-73
2023/09/11 04:25:12;;;;;;;24.75;18.08;;;18.70;99.90;;;;;;5136186;27;20509;-73
2023/09/11 04:27:38;;;;;;;19.25;15.63;;;18.70;99.90;;;;;;5136619;27;20049;-73
2023/09/11 04:30:04;;;;;;;21.40;16.92;;;18.70;99.90;;;;;;5129345;27;20376;-74
2023/09/11 04:32:30;;;;;;;20.92;18.00;;;18.70;99.90;;;;;;5115050;27;20813;-74
2023/09/11 04:34:56;;;;;;;23.40;19.02;;;18.70;99.90;;;;;;5118116;28;20103;-73
2023/09/11 04:37:22;;;;;;;23.83;18.02;;;18.60;99.90;;;;;;5137345;27;20107;-74
2023/09/11 04:39:47;;;;;;;24.75;17.98;;;18.60;99.90;;;;;;5135732;27;20081;-73
2023/09/11 04:42:13;;;;;;;23.85;20.80;;;18.60;99.90;;;;;;5118763;27;20787;-74
2023/09/11 04:44:39;;;;;;;21.83;19.00;;;18.60;99.90;;;;;;5138450;27;20126;-73
2023/09/11 04:47:06;;;;;;;20.83;17.55;;;18.60;99.90;;;;;;5133030;27;20050;-74
2023/09/11 04:49:32;;;;;;;23.58;18.95;;;18.60;99.90;;;;;;5113618;27;20082;-73
2023/09/11 04:51:58;;;;;;;18.77;16.65;;;18.50;99.90;;;;;;5140460;27;20461;-74
2023/09/11 04:54:23;;;;;;;21.48;17.58;;;18.60;99.90;;;;;;5134671;27;20042;-74
2023/09/11 04:56:49;;;;;;;20.00;17.75;;;18.50;99.90;;;;;;5121542;27;20043;-73
2023/09/11 04:59:15;;;;;;;22.70;18.00;;;18.50;99.90;;;;;;5112627;28;20085;-73
2023/09/11 05:01:40;;;;;;;23.80;18.45;;;18.50;99.90;;;;;;5125026;27;20498;-73
2023/09/11 05:04:06;;;;;;;21.58;18.13;;;18.50;99.90;;;;;;5133341;27;20053;-72
2023/09/11 05:06:32;;;;;;;21.95;17.10;;;18.50;99.90;;;;;;5125917;27;20792;-73
2023/09/11 05:08:58;;;;;;;20.55;16.67;;;18.50;99.90;;;;;;5133747;27;20158;-74
2023/09/11 05:11:24;;;;;;;19.42;15.98;;;18.50;99.90;;;;;;5138602;27;20495;-74
2023/09/11 05:13:50;;;;;;;20.35;16.10;;;18.60;99.90;;;;;;5130836;27;20084;-74
2023/09/11 05:16:17;;;;;;;23.00;18.60;;;18.10;99.90;;;;;;5140302;27;20855;-74
2023/09/11 05:18:43;;;;;;;17.40;13.57;;;18.60;99.90;;;;;;5129976;27;20055;-74
2023/09/11 05:21:09;;;;;;;24.33;17.55;;;18.60;99.90;;;;;;5121207;27;20050;-74
2023/09/11 05:23:34;;;;;;;27.48;20.83;;;18.60;99.90;;;;;;5124101;27;20104;-74
2023/09/11 05:26:01;;;;;;;22.33;19.33;;;18.60;99.90;;;;;;5097848;27;20057;-74
2023/09/11 05:28:27;;;;;;;24.70;18.35;;;18.60;99.90;;;;;;5132752;27;20055;-73
2023/09/11 05:30:53;;;;;;;29.63;20.45;;;18.60;99.90;;;;;;5132770;27;20058;-74
2023/09/11 05:33:19;;;;;;;23.15;16.33;;;18.50;99.90;;;;;;5118715;27;20047;-74
2023/09/11 05:35:45;;;;;;;22.70;18.55;;;18.60;99.90;;;;;;5134156;27;20149;-74
2023/09/11 05:38:11;;;;;;;30.77;17.88;;;18.60;99.90;;;;;;5137316;27;20072;-74
2023/09/11 05:40:37;;;;;;;21.00;18.35;;;18.70;99.90;;;;;;5134919;27;20055;-74
2023/09/11 05:43:03;;;;;;;24.05;17.90;;;18.70;99.90;;;;;;5141704;27;20049;-74
2023/09/11 05:45:28;;;;;;;25.17;19.52;;;18.80;99.90;;;;;;5124608;27;20054;-74
2023/09/11 05:47:54;;;;;;;21.70;16.65;;;18.80;99.90;;;;;;5106322;27;20035;-74
2023/09/11 05:50:20;;;;;;;23.85;19.02;;;18.80;99.90;;;;;;5113099;27;20058;-74
2023/09/11 05:52:46;;;;;;;30.08;19.92;;;18.90;99.90;;;;;;5126050;27;20046;-73
2023/09/11 05:55:11;;;;;;;25.95;19.95;;;18.90;99.90;;;;;;5125952;27;20061;-74
2023/09/11 05:57:37;;;;;;;19.88;16.30;;;19.00;99.90;;;;;;5129941;27;20616;-74
2023/09/11 06:00:12;;;;;;;20.65;16.85;;;19.10;99.90;;;;;;5132222;27;20089;-74
2023/09/11 06:02:41;;;;;;;29.23;21.13;;;19.10;99.90;;;;;;5118678;27;20097;-73
2023/09/11 06:05:07;;;;;;;21.58;19.25;;;19.20;99.90;;;;;;5140167;27;20107;-74
2023/09/11 06:07:33;;;;;;;19.92;17.38;;;19.30;99.90;;;;;;5139718;27;20522;-74
2023/09/11 06:09:59;;;;;;;24.17;18.83;;;19.30;99.90;;;;;;5134991;27;20047;-74
2023/09/11 06:12:29;;;;;;;25.20;17.75;;;19.40;99.90;;;;;;5119466;27;20051;-73
2023/09/11 06:14:55;;;;;;;24.20;17.75;;;19.50;99.90;;;;;;5122632;27;20387;-74
2023/09/11 06:17:20;;;;;;;24.92;17.92;;;19.60;99.90;;;;;;5143381;27;20054;-74
2023/09/11 06:19:46;;;;;;;23.52;17.35;;;19.70;99.90;;;;;;5143936;27;20451;-73
2023/09/11 06:22:12;;;;;;;27.02;18.05;;;19.80;99.90;;;;;;5137064;27;20039;-74
2023/09/11 06:24:38;;;;;;;24.13;18.65;;;19.90;99.90;;;;;;5100870;27;20051;-73
2023/09/11 06:27:08;;;;;;;27.80;18.52;;;20.00;99.90;;;;;;5125504;27;20562;-74
2023/09/11 06:29:34;;;;;;;22.83;18.23;;;20.00;99.90;;;;;;5122143;27;20077;-74
2023/09/11 06:31:59;;;;;;;24.13;18.83;;;20.10;99.90;;;;;;5113415;27;20058;-74
2023/09/11 06:34:25;;;;;;;23.50;17.58;;;20.10;99.90;;;;;;5092649;27;20042;-74
2023/09/11 06:36:54;;;;;;;25.45;18.58;;;20.20;99.90;;;;;;5124482;27;20094;-74
2023/09/11 06:39:22;;;;;;;22.58;18.83;;;20.30;99.90;;;;;;5131722;27;20506;-75
2023/09/11 06:41:48;;;;;;;22.80;18.10;;;20.40;99.90;;;;;;5119460;27;20047;-74
2023/09/11 06:44:14;;;;;;;23.83;18.80;;;20.50;99.90;;;;;;5142439;27;20095;-74
2023/09/11 06:46:39;;;;;;;26.60;19.48;;;20.60;99.90;;;;;;5140376;27;20271;-74
2023/09/11 06:49:05;;;;;;;27.08;19.15;;;20.70;99.90;;;;;;5079913;27;20051;-74
2023/09/11 06:51:31;;;;;;;23.52;18.23;;;20.80;99.90;;;;;;5100138;27;20750;-74
2023/09/11 06:53:57;;;;;;;22.92;19.27;;;20.90;99.90;;;;;;5106286;27;20042;-73
2023/09/11 06:56:22;;;;;;;27.17;19.25;;;21.00;99.90;;;;;;5104937;27;20414;-74
2023/09/11 06:58:48;;;;;;;27.10;18.08;;;21.10;99.90;;;;;;5122247;27;20054;-73
2023/09/11 07:01:14;;;;;;;21.75;19.25;;;21.30;99.90;;;;;;5123007;27;20042;-73
2023/09/11 07:03:40;;;;;;;26.00;19.60;;;21.50;99.90;;;;;;5116699;27;20107;-73
2023/09/11 07:06:06;;;;;;;25.17;17.25;;;21.60;99.90;;;;;;5105738;27;20049;-73
2023/09/11 07:08:31;;;;;;;21.55;17.15;;;21.80;99.90;;;;;;5106582;27;20043;-74
2023/09/11 07:10:57;;;;;;;23.15;16.38;;;22.00;99.90;;;;;;5117029;27;20087;-75
2023/09/11 07:13:23;;;;;;;22.88;16.40;;;22.10;99.90;;;;;;5119819;27;20116;-75
2023/09/11 07:15:59;;;;;;;22.42;14.93;;;22.30;99.90;;;;;;5117931;27;20403;-75
2023/09/11 07:18:26;;;;;;;24.67;14.75;;;22.50;99.90;;;;;;5103823;27;20039;-76
2023/09/11 07:20:52;;;;;;;19.75;13.80;;;22.70;99.90;;;;;;5137110;27;20644;-76
2023/09/11 07:23:23;;;;;;;22.90;14.82;;;23.00;99.90;;;;;;5142914;27;20383;-76
2023/09/11 07:25:52;;;;;;;23.80;13.40;;;23.30;99.90;;;;;;5123798;27;20069;-77
2023/09/11 07:28:18;;;;;;;20.67;12.77;;;23.90;99.90;;;;;;5119841;27;20050;-77
2023/09/11 07:30:44;;;;;;;21.83;12.18;;;25.00;99.90;;;;;;5132573;27;20130;-76
2023/09/11 07:33:10;;;;;;;18.27;12.48;;;25.90;99.90;;;;;;5132144;27;20054;-76
2023/09/11 07:35:37;;;;;;;18.77;11.57;;;26.80;99.90;;;;;;5115087;27;20047;-76
2023/09/11 07:38:05;;;;;;;20.48;12.18;;;27.70;99.90;;;;;;5135365;27;20063;-76
2023/09/11 07:40:32;;;;;;;16.15;11.43;;;28.30;99.90;;;;;;5125968;27;20814;-76
2023/09/11 07:42:57;;;;;;;18.65;12.15;;;28.70;99.90;;;;;;5108831;27;20051;-77
2023/09/11 07:45:23;;;;;;;18.40;11.20;;;29.20;99.90;;;;;;5122692;27;20527;-76
2023/09/11 07:47:50;;;;;;;15.25;10.35;;;29.70;99.90;;;;;;5103670;27;20043;-77
2023/09/11 07:50:16;;;;;;;14.70;10.07;;;30.30;99.90;;;;;;5141171;27;20051;-76
2023/09/11 07:52:42;;;;;;;11.90;10.00;;;30.90;99.90;;;;;;5138644;27;20056;-75
2023/09/11 07:55:08;;;;;;;12.98;10.48;;;31.60;99.90;;;;;;5111523;27;20061;-76
2023/09/11 07:57:33;;;;;;;18.05;9.82;;;32.20;99.70;;;;;;5102037;27;20055;-76
2023/09/11 08:00:04;;;;;;;15.32;9.77;;;32.30;98.00;;;;;;5115808;27;20116;-76
2023/09/11 08:02:30;;;;;;;16.27;9.52;;;32.30;97.90;;;;;;5137550;27;20057;-77
2023/09/11 08:04:56;;;;;;;18.58;10.10;;;32.40;97.70;;;;;;5121894;27;20038;-76
2023/09/11 08:07:22;;;;;;;14.13;9.05;;;32.60;97.20;;;;;;5085257;27;20124;-76
2023/09/11 08:09:48;;;;;;;15.95;9.60;;;32.80;96.80;;;;;;5132060;27;20081;-76
2023/09/11 08:12:15;;;;;;;13.80;8.70;;;32.90;96.30;;;;;;5110840;27;20039;-76
2023/09/11 08:14:40;;;;;;;14.63;8.68;;;32.90;95.90;;;;;;5113147;27;20049;-77
2023/09/11 08:17:06;;;;;;;11.65;9.63;;;33.30;96.00;;;;;;5136208;27;20043;-77
2023/09/11 08:19:32;;;;;;;12.18;7.40;;;33.40;95.30;;;;;;5137925;27;20042;-76
2023/09/11 08:21:57;;;;;;;15.40;8.10;;;33.50;95.20;;;;;;5127937;27;20047;-73
2023/09/11 08:24:23;;;;;;;19.02;8.93;;;33.90;94.90;;;;;;5121539;27;20074;-73
2023/09/11 08:26:49;;;;;;;16.08;7.20;;;34.30;94.70;;;;;;5106968;27;20047;-74
2023/09/11 08:29:15;;;;;;;15.10;8.05;;;34.70;94.20;;;;;;5104308;27;20047;-74
2023/09/11 08:31:43;;;;;;;9.85;8.20;;;34.60;93.60;;;;;;5131396;27;20051;-74
2023/09/11 08:34:09;;;;;;;11.52;7.50;;;34.80;93.30;;;;;;5107097;27;20150;-73
2023/09/11 08:36:35;;;;;;;14.40;7.88;;;34.70;93.20;;;;;;5137023;27;20042;-74
2023/09/11 08:39:00;;;;;;;10.52;6.63;;;34.70;92.90;;;;;;5103464;28;20055;-74
2023/09/11 08:41:26;;;;;;;11.07;7.20;;;35.10;92.70;;;;;;5112499;27;20082;-74
2023/09/11 08:43:52;;;;;;;10.85;6.63;;;35.30;92.40;;;;;;5122027;27;20046;-75
2023/09/11 08:46:18;;;;;;;13.35;6.90;;;34.90;92.10;;;;;;5118633;27;20533;-74
2023/09/11 08:48:46;;;;;;;12.02;7.60;;;35.10;92.20;;;;;;5119953;27;20389;-74
2023/09/11 08:51:21;;;;;;;15.68;7.20;;;35.50;92.10;;;;;;5116226;27;20054;-75
2023/09/11 08:53:50;;;;;;;11.05;6.72;;;35.70;91.30;;;;;;5132224;27;20179;-74
2023/09/11 08:56:16;;;;;;;11.88;6.93;;;35.70;90.50;;;;;;5084862;27;20146;-74
2023/09/11 08:58:43;;;;;;;9.70;7.05;;;36.00;91.50;;;;;;5101922;27;20050;-74
2023/09/11 09:01:09;;;;;;;11.35;6.72;;;36.30;91.20;;;;;;5135855;27;20052;-74
2023/09/11 09:03:37;;;;;;;12.07;6.68;;;36.40;91.00;;;;;;5114944;27;20810;-74
2023/09/11 09:06:04;;;;;;;11.75;6.85;;;36.30;90.90;;;;;;5140758;27;20047;-74
2023/09/11 09:08:31;;;;;;;11.23;7.03;;;36.40;90.90;;;;;;5113582;27;20270;-74
2023/09/11 09:10:59;;;;;;;7.15;6.45;;;36.00;90.60;;;;;;5139514;27;20078;-75
2023/09/11 09:13:25;;;;;;;14.43;6.65;;;36.40;89.40;;;;;;5143603;27;20475;-74
2023/09/11 09:15:51;;;;;;;8.98;7.18;;;36.10;90.30;;;;;;5119647;27;20047;-74
2023/09/11 09:18:17;;;;;;;11.88;6.97;;;35.50;89.20;;;;;;5126541;27;20773;-74
2023/09/11 09:20:42;;;;;;;10.23;7.30;;;35.30;90.00;;;;;;5139088;27;20050;-74
2023/09/11 09:23:08;;;;;;;15.05;7.28;;;35.20;90.00;;;;;;5145953;27;20043;-74
2023/09/11 09:25:34;;;;;;;7.95;6.75;;;35.50;90.10;;;;;;5143878;27;20046;-77
2023/09/11 09:28:00;;;;;;;11.23;6.75;;;35.50;90.00;;;;;;5143340;27;20231;-73
2023/09/11 09:30:31;;;;;;;8.75;7.20;;;35.60;90.00;;;;;;5133841;27;20854;-74
2023/09/11 09:32:58;;;;;;;12.15;6.78;;;35.20;89.30;;;;;;5129062;27;20054;-74
2023/09/11 09:35:32;;;;;;;11.98;8.20;;;35.30;89.70;;;;;;5140000;27;20062;-74
2023/09/11 09:37:59;;;;;;;13.43;6.97;;;35.20;88.70;;;;;;5128177;27;20046;-73
2023/09/11 09:40:39;;;;;;;11.63;6.95;;;35.20;89.60;;;;;;5116826;27;20470;-73
2023/09/11 09:43:06;;;;;;;10.55;8.00;;;34.90;87.80;;;;;;5141768;27;20118;-74
2023/09/11 09:45:39;;;;;;;11.48;8.35;;;35.00;87.60;;;;;;5128326;27;20051;-74
2023/09/11 09:48:10;;;;;;;12.93;7.82;;;35.10;87.80;;;;;;5108399;27;20054;-73
2023/09/11 09:50:47;;;;;;;14.88;8.15;;;35.20;89.50;;;;;;5124658;27;20081;-73
2023/09/11 09:53:23;;;;;;;11.77;8.15;;;35.40;87.30;;;;;;5105320;27;20091;-74
2023/09/11 09:55:49;;;;;;;12.45;7.00;;;35.30;87.90;;;;;;5124814;27;20054;-73
2023/09/11 09:58:14;;;;;;;12.50;7.45;;;35.20;88.80;;;;;;5123419;27;20127;-74
2023/09/11 10:00:40;;;;;;;13.13;7.60;;;35.50;88.60;;;;;;5105766;27;20062;-74
2023/09/11 10:03:06;;;;;;;16.92;7.53;;;35.90;88.60;;;;;;5123783;27;20093;-74
2023/09/11 10:05:32;;;;;;;15.02;8.32;;;35.60;88.10;;;;;;5136113;27;20064;-74
2023/09/11 10:08:00;;;;;;;12.00;7.93;;;36.00;88.40;;;;;;5135296;27;20655;-74
2023/09/11 10:10:29;;;;;;;10.32;6.90;;;35.90;87.60;;;;;;5103796;27;20452;-74
2023/09/11 10:13:06;;;;;;;11.30;7.95;;;36.10;87.50;;;;;;5131853;27;20045;-73
2023/09/11 10:15:34;;;;;;;9.70;7.03;;;36.50;86.90;;;;;;5110818;27;20050;-77
2023/09/11 10:18:00;;;;;;;9.68;6.65;;;36.30;87.00;;;;;;5119693;27;20050;-77
2023/09/11 10:20:26;;;;;;;17.20;7.88;;;36.40;86.60;;;;;;5130341;27;20111;-77
2023/09/11 10:22:57;;;;;;;7.70;6.30;;;36.20;86.20;;;;;;5108065;27;20049;-76
2023/09/11 10:25:24;;;;;;;10.73;6.70;;;36.70;86.30;;;;;;5113456;27;20949;-77
2023/09/11 10:28:00;;;;;;;7.68;6.85;;;36.90;86.20;;;;;;5140197;27;20154;-77
2023/09/11 10:30:45;;;;;;;12.38;7.50;;;37.40;85.40;;;;;;5103469;27;20079;-76
2023/09/11 10:33:20;;;;;;;9.07;6.88;;;37.30;84.10;;;;;;5137234;27;20073;-76
2023/09/11 10:35:47;;;;;;;13.07;6.82;;;37.60;84.30;;;;;;5129744;27;20868;-73
2023/09/11 10:38:16;;;;;;;13.35;7.15;;;37.20;84.60;;;;;;5129483;27;20062;-77
2023/09/11 10:40:43;;;;;;;8.70;7.50;;;37.20;84.10;;;;;;5135326;27;20449;-77
2023/09/11 10:43:10;;;;;;;8.55;7.22;;;36.90;83.70;;;;;;5136885;27;20038;-77
2023/09/11 10:45:36;;;;;;;9.40;7.50;;;36.30;85.00;;;;;;5139095;27;20082;-77
2023/09/11 10:48:02;;;;;;;11.50;7.97;;;35.80;85.80;;;;;;5126235;27;20051;-77
2023/09/11 10:50:42;;;;;;;11.57;9.45;;;34.50;86.90;;;;;;5141092;27;20178;-77
2023/09/11 10:53:09;;;;;;;12.80;7.93;;;33.40;87.00;;;;;;5137036;27;20038;-77
2023/09/11 10:55:35;;;;;;;11.90;8.20;;;33.00;89.90;;;;;;5138958;27;20052;-77
2023/09/11 10:58:05;;;;;;;11.82;8.77;;;32.60;90.00;;;;;;5130832;27;20121;-77
2023/09/11 11:00:38;;;;;;;13.98;9.05;;;32.20;90.50;;;;;;5134693;27;20144;-76
2023/09/11 11:03:04;;;;;;;9.82;8.63;;;32.00;91.00;;;;;;5126883;27;20509;-77
2023/09/11 11:05:32;;;;;;;12.30;7.75;;;31.90;90.90;;;;;;5113566;27;20047;-76
2023/09/11 11:07:58;;;;;;;10.50;8.30;;;31.80;90.90;;;;;;5122338;27;20047;-76
2023/09/11 11:10:25;;;;;;;12.63;8.40;;;31.60;91.10;;;;;;5113576;27;20047;-76
2023/09/11 11:13:05;;;;;;;10.23;7.93;;;31.60;91.30;;;;;;5110347;27;20053;-76
2023/09/11 11:15:31;;;;;;;10.50;8.70;;;31.50;91.60;;;;;;5128526;27;20108;-76
2023/09/11 11:18:26;;;;;;;12.30;8.68;;;31.40;91.40;;;;;;5127386;27;20126;-76
2023/09/11 11:21:04;;;;;;;10.70;8.65;;;31.20;91.90;;;;;;5123996;27;20227;-76
2023/09/11 11:23:33;;;;;;;10.95;8.48;;;31.20;91.30;;;;;;5114612;27;20134;-76
2023/09/11 11:26:10;;;;;;;13.40;8.98;;;31.10;91.50;;;;;;5113563;27;20051;-77
2023/09/11 11:28:41;;;;;;;10.57;9.07;;;31.10;91.90;;;;;;5131545;27;20050;-78
2023/09/11 11:31:09;;;;;;;10.23;8.93;;;31.10;92.20;;;;;;5134985;27;20073;-76
2023/09/11 11:33:38;;;;;;;15.77;9.38;;;31.10;91.90;;;;;;5119211;27;20068;-77
2023/09/11 11:36:07;;;;;;;13.50;10.23;;;31.00;92.10;;;;;;5136314;27;20112;-76
2023/09/11 11:38:33;;;;;;;11.75;9.57;;;30.90;92.10;;;;;;5114908;27;20419;-77
2023/09/11 11:41:00;;;;;;;10.30;9.25;;;30.80;92.50;;;;;;5122733;27;20500;-77
2023/09/11 11:43:27;;;;;;;13.70;9.18;;;30.90;92.90;;;;;;5125136;27;20049;-76
2023/09/11 11:45:55;;;;;;;15.82;9.05;;;30.80;92.50;;;;;;5121680;27;20211;-76
2023/09/11 11:48:22;;;;;;;9.20;8.30;;;30.90;92.70;;;;;;5125064;27;20050;-77
2023/09/11 11:50:49;;;;;;;9.65;8.07;;;30.80;92.50;;;;;;5108224;27;20047;-77
2023/09/11 11:53:21;;;;;;;11.15;8.25;;;30.80;92.20;;;;;;5120167;27;20069;-77
2023/09/11 11:55:48;;;;;;;10.48;8.13;;;30.80;92.10;;;;;;5132512;27;20043;-77
2023/09/11 11:58:15;;;;;;;11.00;8.63;;;30.70;92.10;;;;;;5133423;27;20064;-77
2023/09/11 12:01:05;;;;;;;12.98;8.40;;;30.70;92.10;;;;;;5131816;27;20046;-77
2023/09/11 12:03:32;;;;;;;10.00;8.07;;;30.60;92.50;;;;;;5119823;27;20054;-76
2023/09/11 12:06:03;;;;;;;12.73;8.32;;;30.60;92.40;;;;;;5102184;27;20863;-76
2023/09/11 12:08:29;;;;;;;13.23;8.90;;;30.70;92.70;;;;;;5132000;27;20054;-77
2023/09/11 12:10:55;;;;;;;9.70;7.60;;;30.60;92.50;;;;;;5121579;27;20425;-77
2023/09/11 12:13:25;;;;;;;9.70;7.53;;;30.60;92.10;;;;;;5108556;27;20055;-76
2023/09/11 12:15:59;;;;;;;9.75;7.07;;;30.50;91.70;;;;;;5132095;27;20061;-77
2023/09/11 12:18:27;;;;;;;8.27;6.82;;;30.50;91.90;;;;;;5134909;27;20049;-77
2023/09/11 12:21:00;;;;;;;8.40;7.10;;;30.50;91.50;;;;;;5133093;27;20053;-83
2023/09/11 12:23:26;;;;;;;;;;;30.50;91.30;;;;;;5129170;27;20062;-77
2023/09/11 12:25:52;;;;;;;13.40;6.93;;;30.50;90.90;;;;;;5118359;27;19923;-79
2023/09/11 12:28:20;;;;;;;7.68;6.78;;;30.40;91.40;;;;;;5129275;27;20455;-78
2023/09/11 12:30:46;;;;;;;9.98;6.90;;;30.50;91.40;;;;;;5137668;27;20050;-78